sensor_id;sensor_type;location;lat;lon;timestamp;P1;durP1;ratioP1;P2;durP2;ratioP2
50231;SDS011;36118;56.468;84.952;2023-04-15T00:04:27;2.25;;;1.00;;
50231;SDS011;36118;56.468;84.952;2023-04-15T00:09:30;9.40;;;1.65;;
50231;SDS011;36118;56.468;84.952;2023-04-15T00:14:33;13.63;;;2.85;;
50231;SDS011;36118;56.468;84.952;2023-04-15T00:19:37;6.78;;;2.00;;
50231;SDS011;36118;56.468;84.952;2023-04-15T00:24:41;10.38;;;4.07;;
50231;SDS011;36118;56.468;84.952;2023-04-15T00:29:44;7.18;;;2.45;;
50231;SDS011;36118;56.468;84.952;2023-04-15T00:34:47;17.67;;;3.45;;
50231;SDS011;36118;56.468;84.952;2023-04-15T00:39:50;1.25;;;0.75;;
50231;SDS011;36118;56.468;84.952;2023-04-15T00:44:53;4.60;;;1.98;;
50231;SDS011;36118;56.468;84.952;2023-04-15T00:49:56;4.88;;;1.85;;
50231;SDS011;36118;56.468;84.952;2023-04-15T00:54:59;7.78;;;2.78;;
50231;SDS011;36118;56.468;84.952;2023-04-15T01:00:04;12.68;;;2.85;;
50231;SDS011;36118;56.468;84.952;2023-04-15T01:05:09;7.13;;;3.85;;
50231;SDS011;36118;56.468;84.952;2023-04-15T01:10:11;6.18;;;2.00;;
50231;SDS011;36118;56.468;84.952;2023-04-15T01:15:16;13.85;;;2.88;;
50231;SDS011;36118;56.468;84.952;2023-04-15T01:20:19;8.95;;;3.13;;
50231;SDS011;36118;56.468;84.952;2023-04-15T01:25:39;4.33;;;1.93;;
50231;SDS011;36118;56.468;84.952;2023-04-15T01:30:43;10.73;;;2.90;;
50231;SDS011;36118;56.468;84.952;2023-04-15T01:35:48;2.78;;;1.23;;
50231;SDS011;36118;56.468;84.952;2023-04-15T01:40:51;8.03;;;3.07;;
50231;SDS011;36118;56.468;84.952;2023-04-15T01:45:55;9.63;;;2.50;;
50231;SDS011;36118;56.468;84.952;2023-04-15T01:51:00;8.43;;;3.58;;
50231;SDS011;36118;56.468;84.952;2023-04-15T01:56:04;6.07;;;1.67;;
50231;SDS011;36118;56.468;84.952;2023-04-15T02:01:10;13.02;;;2.92;;
50231;SDS011;36118;56.468;84.952;2023-04-15T02:06:15;13.20;;;3.13;;
50231;SDS011;36118;56.468;84.952;2023-04-15T02:11:20;16.23;;;5.32;;
50231;SDS011;36118;56.468;84.952;2023-04-15T02:16:25;10.05;;;4.03;;
50231;SDS011;36118;56.468;84.952;2023-04-15T02:21:29;9.20;;;4.30;;
50231;SDS011;36118;56.468;84.952;2023-04-15T02:26:33;14.35;;;5.13;;
50231;SDS011;36118;56.468;84.952;2023-04-15T02:31:37;10.02;;;3.63;;
50231;SDS011;36118;56.468;84.952;2023-04-15T02:36:43;7.95;;;2.22;;
50231;SDS011;36118;56.468;84.952;2023-04-15T02:41:50;9.00;;;4.38;;
50231;SDS011;36118;56.468;84.952;2023-04-15T02:46:54;11.68;;;3.80;;
50231;SDS011;36118;56.468;84.952;2023-04-15T02:51:58;21.63;;;7.30;;
50231;SDS011;36118;56.468;84.952;2023-04-15T02:57:03;10.73;;;3.70;;
50231;SDS011;36118;56.468;84.952;2023-04-15T03:02:09;14.25;;;4.53;;
50231;SDS011;36118;56.468;84.952;2023-04-15T03:07:13;10.70;;;5.45;;
50231;SDS011;36118;56.468;84.952;2023-04-15T03:12:17;9.63;;;4.85;;
50231;SDS011;36118;56.468;84.952;2023-04-15T03:22:25;10.40;;;3.25;;
50231;SDS011;36118;56.468;84.952;2023-04-15T03:27:30;8.88;;;2.90;;
50231;SDS011;36118;56.468;84.952;2023-04-15T03:32:36;9.38;;;2.85;;
50231;SDS011;36118;56.468;84.952;2023-04-15T03:37:42;9.25;;;4.07;;
50231;SDS011;36118;56.468;84.952;2023-04-15T03:47:49;6.35;;;2.42;;
50231;SDS011;36118;56.468;84.952;2023-04-15T03:52:54;5.60;;;1.83;;
50231;SDS011;36118;56.468;84.952;2023-04-15T03:57:58;4.47;;;1.60;;
50231;SDS011;36118;56.468;84.952;2023-04-15T04:08:06;4.57;;;1.40;;
50231;SDS011;36118;56.468;84.952;2023-04-15T04:18:14;9.48;;;3.63;;
50231;SDS011;36118;56.468;84.952;2023-04-15T04:23:18;3.50;;;1.33;;
50231;SDS011;36118;56.468;84.952;2023-04-15T04:28:22;8.82;;;3.17;;
50231;SDS011;36118;56.468;84.952;2023-04-15T04:38:29;6.72;;;3.00;;
50231;SDS011;36118;56.468;84.952;2023-04-15T04:43:33;6.20;;;1.95;;
50231;SDS011;36118;56.468;84.952;2023-04-15T04:48:37;1.55;;;0.77;;
50231;SDS011;36118;56.468;84.952;2023-04-15T04:53:41;3.70;;;1.30;;
50231;SDS011;36118;56.468;84.952;2023-04-15T04:58:45;2.38;;;0.88;;
50231;SDS011;36118;56.468;84.952;2023-04-15T05:03:49;2.53;;;0.88;;
50231;SDS011;36118;56.468;84.952;2023-04-15T05:08:54;3.13;;;1.40;;
50231;SDS011;36118;56.468;84.952;2023-04-15T05:13:59;6.38;;;1.98;;
50231;SDS011;36118;56.468;84.952;2023-04-15T05:19:04;7.35;;;1.83;;
50231;SDS011;36118;56.468;84.952;2023-04-15T05:24:08;4.15;;;1.60;;
50231;SDS011;36118;56.468;84.952;2023-04-15T05:29:12;4.90;;;1.98;;
50231;SDS011;36118;56.468;84.952;2023-04-15T05:34:16;5.15;;;1.00;;
50231;SDS011;36118;56.468;84.952;2023-04-15T05:39:21;9.18;;;3.30;;
50231;SDS011;36118;56.468;84.952;2023-04-15T05:44:25;8.07;;;2.05;;
50231;SDS011;36118;56.468;84.952;2023-04-15T05:54:33;12.43;;;1.60;;
50231;SDS011;36118;56.468;84.952;2023-04-15T05:59:37;6.35;;;1.88;;
50231;SDS011;36118;56.468;84.952;2023-04-15T06:04:41;7.50;;;1.40;;
50231;SDS011;36118;56.468;84.952;2023-04-15T06:09:45;6.90;;;2.13;;
50231;SDS011;36118;56.468;84.952;2023-04-15T06:14:49;4.90;;;1.35;;
50231;SDS011;36118;56.468;84.952;2023-04-15T06:19:53;4.68;;;1.50;;
50231;SDS011;36118;56.468;84.952;2023-04-15T06:24:58;3.92;;;1.48;;
50231;SDS011;36118;56.468;84.952;2023-04-15T06:30:02;3.20;;;1.58;;
50231;SDS011;36118;56.468;84.952;2023-04-15T06:35:07;4.10;;;1.55;;
50231;SDS011;36118;56.468;84.952;2023-04-15T06:45:15;4.72;;;1.20;;
50231;SDS011;36118;56.468;84.952;2023-04-15T06:50:20;2.33;;;1.02;;
50231;SDS011;36118;56.468;84.952;2023-04-15T06:55:24;6.13;;;2.38;;
50231;SDS011;36118;56.468;84.952;2023-04-15T07:00:28;3.70;;;1.80;;
50231;SDS011;36118;56.468;84.952;2023-04-15T07:05:32;5.70;;;1.77;;
50231;SDS011;36118;56.468;84.952;2023-04-15T07:10:36;1.73;;;0.50;;
50231;SDS011;36118;56.468;84.952;2023-04-15T07:15:41;7.75;;;2.97;;
50231;SDS011;36118;56.468;84.952;2023-04-15T07:20:44;4.43;;;2.13;;
50231;SDS011;36118;56.468;84.952;2023-04-15T07:25:49;6.68;;;2.10;;
50231;SDS011;36118;56.468;84.952;2023-04-15T07:30:54;4.25;;;1.90;;
50231;SDS011;36118;56.468;84.952;2023-04-15T07:35:59;3.85;;;1.38;;
50231;SDS011;36118;56.468;84.952;2023-04-15T07:46:08;3.85;;;1.40;;
50231;SDS011;36118;56.468;84.952;2023-04-15T07:51:12;6.70;;;2.58;;
50231;SDS011;36118;56.468;84.952;2023-04-15T07:56:16;3.97;;;1.80;;
50231;SDS011;36118;56.468;84.952;2023-04-15T08:01:20;4.53;;;2.00;;
50231;SDS011;36118;56.468;84.952;2023-04-15T08:06:25;7.40;;;2.83;;
50231;SDS011;36118;56.468;84.952;2023-04-15T08:11:30;8.88;;;2.90;;
50231;SDS011;36118;56.468;84.952;2023-04-15T08:16:34;8.10;;;2.33;;
50231;SDS011;36118;56.468;84.952;2023-04-15T08:21:38;8.15;;;1.90;;
50231;SDS011;36118;56.468;84.952;2023-04-15T08:26:43;6.20;;;2.05;;
50231;SDS011;36118;56.468;84.952;2023-04-15T08:31:51;7.85;;;2.78;;
50231;SDS011;36118;56.468;84.952;2023-04-15T08:36:58;11.52;;;3.22;;
50231;SDS011;36118;56.468;84.952;2023-04-15T08:42:02;9.57;;;2.43;;
50231;SDS011;36118;56.468;84.952;2023-04-15T08:47:09;4.40;;;2.13;;
50231;SDS011;36118;56.468;84.952;2023-04-15T08:52:16;5.25;;;2.13;;
50231;SDS011;36118;56.468;84.952;2023-04-15T08:57:22;7.45;;;2.67;;
50231;SDS011;36118;56.468;84.952;2023-04-15T09:02:30;3.95;;;2.00;;
50231;SDS011;36118;56.468;84.952;2023-04-15T09:07:34;2.45;;;1.08;;
50231;SDS011;36118;56.468;84.952;2023-04-15T09:12:39;7.03;;;2.40;;
50231;SDS011;36118;56.468;84.952;2023-04-15T09:17:43;7.57;;;2.37;;
50231;SDS011;36118;56.468;84.952;2023-04-15T09:22:47;5.25;;;2.15;;
50231;SDS011;36118;56.468;84.952;2023-04-15T09:28:01;3.47;;;1.65;;
50231;SDS011;36118;56.468;84.952;2023-04-15T09:33:06;5.10;;;2.00;;
50231;SDS011;36118;56.468;84.952;2023-04-15T09:38:13;5.82;;;1.90;;
50231;SDS011;36118;56.468;84.952;2023-04-15T09:43:17;5.57;;;1.40;;
50231;SDS011;36118;56.468;84.952;2023-04-15T09:48:22;3.57;;;1.77;;
50231;SDS011;36118;56.468;84.952;2023-04-15T09:53:29;5.70;;;2.00;;
50231;SDS011;36118;56.468;84.952;2023-04-15T09:58:37;7.80;;;2.50;;
50231;SDS011;36118;56.468;84.952;2023-04-15T10:03:43;6.78;;;2.55;;
50231;SDS011;36118;56.468;84.952;2023-04-15T10:08:48;5.55;;;2.30;;
50231;SDS011;36118;56.468;84.952;2023-04-15T10:13:52;10.77;;;2.60;;
50231;SDS011;36118;56.468;84.952;2023-04-15T10:18:57;3.88;;;1.70;;
50231;SDS011;36118;56.468;84.952;2023-04-15T10:24:05;5.15;;;1.55;;
50231;SDS011;36118;56.468;84.952;2023-04-15T10:29:15;7.60;;;2.00;;
50231;SDS011;36118;56.468;84.952;2023-04-15T10:34:19;7.63;;;2.67;;
50231;SDS011;36118;56.468;84.952;2023-04-15T10:44:37;4.78;;;2.30;;
50231;SDS011;36118;56.468;84.952;2023-04-15T10:49:49;6.90;;;2.25;;
50231;SDS011;36118;56.468;84.952;2023-04-15T10:55:23;8.95;;;1.92;;
50231;SDS011;36118;56.468;84.952;2023-04-15T11:00:29;5.85;;;1.80;;
50231;SDS011;36118;56.468;84.952;2023-04-15T11:15:48;6.27;;;1.60;;
50231;SDS011;36118;56.468;84.952;2023-04-15T11:20:55;5.93;;;1.90;;
50231;SDS011;36118;56.468;84.952;2023-04-15T11:26:09;4.75;;;1.60;;
50231;SDS011;36118;56.468;84.952;2023-04-15T11:31:15;3.03;;;0.85;;
50231;SDS011;36118;56.468;84.952;2023-04-15T11:36:22;8.27;;;2.20;;
50231;SDS011;36118;56.468;84.952;2023-04-15T11:41:29;3.60;;;1.02;;
50231;SDS011;36118;56.468;84.952;2023-04-15T11:46:33;8.40;;;3.67;;
50231;SDS011;36118;56.468;84.952;2023-04-15T11:51:37;7.30;;;2.43;;
50231;SDS011;36118;56.468;84.952;2023-04-15T11:56:40;4.15;;;1.92;;
50231;SDS011;36118;56.468;84.952;2023-04-15T12:01:43;2.35;;;1.02;;
50231;SDS011;36118;56.468;84.952;2023-04-15T12:06:48;3.25;;;1.50;;
50231;SDS011;36118;56.468;84.952;2023-04-15T12:11:51;8.02;;;2.25;;
50231;SDS011;36118;56.468;84.952;2023-04-15T12:17:02;2.22;;;1.00;;
50231;SDS011;36118;56.468;84.952;2023-04-15T12:22:10;3.08;;;1.50;;
50231;SDS011;36118;56.468;84.952;2023-04-15T12:27:14;4.35;;;1.83;;
50231;SDS011;36118;56.468;84.952;2023-04-15T12:32:18;5.77;;;2.10;;
50231;SDS011;36118;56.468;84.952;2023-04-15T12:37:22;3.83;;;1.33;;
50231;SDS011;36118;56.468;84.952;2023-04-15T12:42:25;4.72;;;1.63;;
50231;SDS011;36118;56.468;84.952;2023-04-15T12:47:28;7.30;;;2.08;;
50231;SDS011;36118;56.468;84.952;2023-04-15T12:52:32;4.32;;;2.17;;
50231;SDS011;36118;56.468;84.952;2023-04-15T12:57:35;6.93;;;2.53;;
50231;SDS011;36118;56.468;84.952;2023-04-15T13:02:38;5.85;;;2.05;;
50231;SDS011;36118;56.468;84.952;2023-04-15T13:07:41;8.32;;;2.35;;
50231;SDS011;36118;56.468;84.952;2023-04-15T13:12:44;9.93;;;3.60;;
50231;SDS011;36118;56.468;84.952;2023-04-15T13:17:48;9.73;;;3.53;;
50231;SDS011;36118;56.468;84.952;2023-04-15T13:22:51;7.85;;;2.85;;
50231;SDS011;36118;56.468;84.952;2023-04-15T13:27:54;5.32;;;2.03;;
50231;SDS011;36118;56.468;84.952;2023-04-15T13:32:58;4.88;;;1.67;;
50231;SDS011;36118;56.468;84.952;2023-04-15T13:38:01;8.40;;;3.75;;
50231;SDS011;36118;56.468;84.952;2023-04-15T13:43:09;7.55;;;2.70;;
50231;SDS011;36118;56.468;84.952;2023-04-15T13:48:12;10.70;;;2.97;;
50231;SDS011;36118;56.468;84.952;2023-04-15T13:53:15;6.40;;;2.08;;
50231;SDS011;36118;56.468;84.952;2023-04-15T13:58:18;5.47;;;2.10;;
50231;SDS011;36118;56.468;84.952;2023-04-15T14:03:21;7.20;;;2.45;;
50231;SDS011;36118;56.468;84.952;2023-04-15T14:08:24;7.50;;;2.30;;
50231;SDS011;36118;56.468;84.952;2023-04-15T14:13:27;7.20;;;1.95;;
50231;SDS011;36118;56.468;84.952;2023-04-15T14:18:30;4.75;;;1.98;;
50231;SDS011;36118;56.468;84.952;2023-04-15T14:23:34;7.25;;;1.85;;
50231;SDS011;36118;56.468;84.952;2023-04-15T14:28:37;6.53;;;2.95;;
50231;SDS011;36118;56.468;84.952;2023-04-15T14:33:40;7.38;;;2.47;;
50231;SDS011;36118;56.468;84.952;2023-04-15T14:38:44;8.98;;;2.72;;
50231;SDS011;36118;56.468;84.952;2023-04-15T14:43:50;7.95;;;3.15;;
50231;SDS011;36118;56.468;84.952;2023-04-15T14:48:53;7.68;;;2.55;;
50231;SDS011;36118;56.468;84.952;2023-04-15T14:53:56;11.27;;;2.90;;
50231;SDS011;36118;56.468;84.952;2023-04-15T14:58:59;7.53;;;2.72;;
50231;SDS011;36118;56.468;84.952;2023-04-15T15:04:02;7.18;;;2.60;;
50231;SDS011;36118;56.468;84.952;2023-04-15T15:09:05;10.57;;;3.67;;
50231;SDS011;36118;56.468;84.952;2023-04-15T15:14:08;14.25;;;4.22;;
50231;SDS011;36118;56.468;84.952;2023-04-15T15:19:11;12.10;;;4.93;;
50231;SDS011;36118;56.468;84.952;2023-04-15T15:24:13;12.27;;;3.97;;
50231;SDS011;36118;56.468;84.952;2023-04-15T15:29:16;14.35;;;4.32;;
50231;SDS011;36118;56.468;84.952;2023-04-15T15:34:19;12.70;;;4.10;;
50231;SDS011;36118;56.468;84.952;2023-04-15T15:39:22;11.65;;;4.30;;
50231;SDS011;36118;56.468;84.952;2023-04-15T15:44:25;8.10;;;3.47;;
50231;SDS011;36118;56.468;84.952;2023-04-15T15:49:28;9.35;;;3.47;;
50231;SDS011;36118;56.468;84.952;2023-04-15T15:54:31;8.68;;;3.08;;
50231;SDS011;36118;56.468;84.952;2023-04-15T15:59:34;16.92;;;5.57;;
50231;SDS011;36118;56.468;84.952;2023-04-15T16:04:37;16.23;;;6.00;;
50231;SDS011;36118;56.468;84.952;2023-04-15T16:09:40;12.18;;;4.25;;
50231;SDS011;36118;56.468;84.952;2023-04-15T16:14:44;20.00;;;5.63;;
50231;SDS011;36118;56.468;84.952;2023-04-15T16:19:48;13.40;;;5.20;;
50231;SDS011;36118;56.468;84.952;2023-04-15T16:25:04;22.40;;;5.72;;
50231;SDS011;36118;56.468;84.952;2023-04-15T16:30:07;14.60;;;5.18;;
50231;SDS011;36118;56.468;84.952;2023-04-15T16:35:11;13.93;;;4.20;;
50231;SDS011;36118;56.468;84.952;2023-04-15T16:40:13;17.63;;;6.15;;
50231;SDS011;36118;56.468;84.952;2023-04-15T16:45:16;8.93;;;3.92;;
50231;SDS011;36118;56.468;84.952;2023-04-15T16:50:22;11.32;;;3.80;;
50231;SDS011;36118;56.468;84.952;2023-04-15T16:55:25;18.02;;;4.85;;
50231;SDS011;36118;56.468;84.952;2023-04-15T17:00:29;10.93;;;4.20;;
50231;SDS011;36118;56.468;84.952;2023-04-15T17:05:32;8.70;;;3.65;;
50231;SDS011;36118;56.468;84.952;2023-04-15T17:10:35;10.85;;;4.03;;
50231;SDS011;36118;56.468;84.952;2023-04-15T17:15:38;11.73;;;4.25;;
50231;SDS011;36118;56.468;84.952;2023-04-15T17:20:59;15.45;;;4.93;;
50231;SDS011;36118;56.468;84.952;2023-04-15T17:26:04;9.15;;;3.70;;
50231;SDS011;36118;56.468;84.952;2023-04-15T17:31:08;17.02;;;5.15;;
50231;SDS011;36118;56.468;84.952;2023-04-15T17:36:31;19.88;;;6.50;;
50231;SDS011;36118;56.468;84.952;2023-04-15T17:41:55;13.73;;;5.20;;
50231;SDS011;36118;56.468;84.952;2023-04-15T17:46:58;13.07;;;4.80;;
50231;SDS011;36118;56.468;84.952;2023-04-15T17:52:21;15.15;;;4.40;;
50231;SDS011;36118;56.468;84.952;2023-04-15T17:57:44;19.23;;;6.63;;
50231;SDS011;36118;56.468;84.952;2023-04-15T18:03:07;16.95;;;6.10;;
50231;SDS011;36118;56.468;84.952;2023-04-15T18:08:30;13.57;;;5.00;;
50231;SDS011;36118;56.468;84.952;2023-04-15T18:13:53;11.23;;;4.93;;
50231;SDS011;36118;56.468;84.952;2023-04-15T18:19:16;16.20;;;4.60;;
50231;SDS011;36118;56.468;84.952;2023-04-15T18:24:19;14.70;;;4.30;;
50231;SDS011;36118;56.468;84.952;2023-04-15T18:29:22;13.02;;;3.95;;
50231;SDS011;36118;56.468;84.952;2023-04-15T18:34:25;13.82;;;4.43;;
50231;SDS011;36118;56.468;84.952;2023-04-15T18:39:28;7.28;;;2.33;;
50231;SDS011;36118;56.468;84.952;2023-04-15T18:44:31;14.82;;;3.88;;
50231;SDS011;36118;56.468;84.952;2023-04-15T18:49:34;9.93;;;3.47;;
50231;SDS011;36118;56.468;84.952;2023-04-15T18:54:37;8.55;;;3.92;;
50231;SDS011;36118;56.468;84.952;2023-04-15T18:59:40;16.77;;;4.17;;
50231;SDS011;36118;56.468;84.952;2023-04-15T19:04:43;10.37;;;4.13;;
50231;SDS011;36118;56.468;84.952;2023-04-15T19:09:46;28.60;;;4.90;;
50231;SDS011;36118;56.468;84.952;2023-04-15T19:14:49;14.95;;;5.15;;
50231;SDS011;36118;56.468;84.952;2023-04-15T19:19:52;21.97;;;5.97;;
50231;SDS011;36118;56.468;84.952;2023-04-15T19:24:55;26.95;;;6.30;;
50231;SDS011;36118;56.468;84.952;2023-04-15T19:29:58;21.33;;;6.85;;
50231;SDS011;36118;56.468;84.952;2023-04-15T19:35:01;27.77;;;7.18;;
50231;SDS011;36118;56.468;84.952;2023-04-15T19:40:04;29.40;;;6.47;;
50231;SDS011;36118;56.468;84.952;2023-04-15T19:45:08;22.17;;;5.93;;
50231;SDS011;36118;56.468;84.952;2023-04-15T19:50:11;21.65;;;6.95;;
50231;SDS011;36118;56.468;84.952;2023-04-15T19:55:14;26.02;;;6.80;;
50231;SDS011;36118;56.468;84.952;2023-04-15T20:00:16;27.63;;;7.53;;
50231;SDS011;36118;56.468;84.952;2023-04-15T20:05:19;23.95;;;6.65;;
50231;SDS011;36118;56.468;84.952;2023-04-15T20:10:22;17.05;;;5.57;;
50231;SDS011;36118;56.468;84.952;2023-04-15T20:15:25;26.55;;;6.60;;
50231;SDS011;36118;56.468;84.952;2023-04-15T20:20:28;22.57;;;7.03;;
50231;SDS011;36118;56.468;84.952;2023-04-15T20:25:31;38.42;;;12.90;;
50231;SDS011;36118;56.468;84.952;2023-04-15T20:30:34;22.48;;;9.10;;
50231;SDS011;36118;56.468;84.952;2023-04-15T20:35:36;18.80;;;7.82;;
50231;SDS011;36118;56.468;84.952;2023-04-15T20:40:40;27.13;;;10.55;;
50231;SDS011;36118;56.468;84.952;2023-04-15T20:45:43;21.50;;;8.53;;
50231;SDS011;36118;56.468;84.952;2023-04-15T20:50:45;23.02;;;8.63;;
50231;SDS011;36118;56.468;84.952;2023-04-15T20:55:48;28.08;;;7.55;;
50231;SDS011;36118;56.468;84.952;2023-04-15T21:00:51;16.30;;;7.50;;
50231;SDS011;36118;56.468;84.952;2023-04-15T21:05:56;16.75;;;6.68;;
50231;SDS011;36118;56.468;84.952;2023-04-15T21:10:59;12.20;;;5.40;;
50231;SDS011;36118;56.468;84.952;2023-04-15T21:16:01;17.17;;;5.82;;
50231;SDS011;36118;56.468;84.952;2023-04-15T21:21:04;24.88;;;7.28;;
50231;SDS011;36118;56.468;84.952;2023-04-15T21:26:07;21.40;;;6.45;;
50231;SDS011;36118;56.468;84.952;2023-04-15T21:31:10;18.20;;;6.20;;
50231;SDS011;36118;56.468;84.952;2023-04-15T21:36:13;28.92;;;5.85;;
50231;SDS011;36118;56.468;84.952;2023-04-15T21:41:16;18.00;;;4.80;;
50231;SDS011;36118;56.468;84.952;2023-04-15T21:46:19;17.60;;;5.72;;
50231;SDS011;36118;56.468;84.952;2023-04-15T21:51:26;19.52;;;5.85;;
50231;SDS011;36118;56.468;84.952;2023-04-15T21:56:28;24.08;;;6.72;;
50231;SDS011;36118;56.468;84.952;2023-04-15T22:01:31;19.52;;;7.13;;
50231;SDS011;36118;56.468;84.952;2023-04-15T22:06:34;15.73;;;6.05;;
50231;SDS011;36118;56.468;84.952;2023-04-15T22:11:37;15.80;;;5.50;;
50231;SDS011;36118;56.468;84.952;2023-04-15T22:16:40;15.13;;;6.53;;
50231;SDS011;36118;56.468;84.952;2023-04-15T22:21:48;11.88;;;5.38;;
50231;SDS011;36118;56.468;84.952;2023-04-15T22:26:51;10.52;;;4.38;;
50231;SDS011;36118;56.468;84.952;2023-04-15T22:31:53;11.25;;;4.53;;
50231;SDS011;36118;56.468;84.952;2023-04-15T22:36:56;14.93;;;5.80;;
50231;SDS011;36118;56.468;84.952;2023-04-15T22:41:59;17.08;;;5.70;;
50231;SDS011;36118;56.468;84.952;2023-04-15T22:52:05;12.20;;;4.40;;
50231;SDS011;36118;56.468;84.952;2023-04-15T22:57:13;8.98;;;3.45;;
50231;SDS011;36118;56.468;84.952;2023-04-15T23:02:15;8.13;;;4.10;;
50231;SDS011;36118;56.468;84.952;2023-04-15T23:07:18;5.60;;;2.33;;
50231;SDS011;36118;56.468;84.952;2023-04-15T23:12:21;7.18;;;2.65;;
50231;SDS011;36118;56.468;84.952;2023-04-15T23:17:24;6.88;;;2.72;;
50231;SDS011;36118;56.468;84.952;2023-04-15T23:27:30;8.48;;;3.45;;
50231;SDS011;36118;56.468;84.952;2023-04-15T23:32:33;8.40;;;3.43;;
50231;SDS011;36118;56.468;84.952;2023-04-15T23:37:36;5.90;;;2.57;;
50231;SDS011;36118;56.468;84.952;2023-04-15T23:42:39;8.63;;;2.00;;
50231;SDS011;36118;56.468;84.952;2023-04-15T23:47:41;5.60;;;1.95;;
50231;SDS011;36118;56.468;84.952;2023-04-15T23:52:44;7.40;;;3.13;;
50231;SDS011;36118;56.468;84.952;2023-04-15T23:57:47;7.07;;;2.70;;
